Time;durP1;ratioP1;P1;durP2;ratioP2;P2;SDS_P1;SDS_P2;PMS_P1;PMS_P2;Temp;Humidity;BMP_temperature;BMP_pressure;BME280_temperature;BME280_humidity;BME280_pressure;Samples;Min_cycle;Max_cycle;Signal;HPM_P1;HPM_P2
2024/03/13 00:00:13;;;;;;;34.70;21.23;;;5.90;99.90;;;;;;4918688;29;20182;-84
2024/03/13 00:02:45;;;;;;;35.17;20.70;;;5.80;99.90;;;;;;4919514;29;20163;-83
2024/03/13 00:05:11;;;;;;;30.43;18.60;;;5.90;99.90;;;;;;4919368;29;20178;-84
2024/03/13 00:07:40;;;;;;;32.37;20.33;;;5.80;99.90;;;;;;4919264;29;20210;-84
2024/03/13 00:10:08;;;;;;;34.13;21.80;;;5.90;99.90;;;;;;4918032;29;20832;-84
2024/03/13 00:12:34;;;;;;;35.03;21.13;;;5.90;99.90;;;;;;4917928;29;20186;-83
2024/03/13 00:15:05;;;;;;;30.70;18.93;;;5.80;99.90;;;;;;4918811;29;20950;-83
2024/03/13 00:17:31;;;;;;;31.53;19.10;;;5.90;99.90;;;;;;4918616;29;20190;-84
2024/03/13 00:19:57;;;;;;;29.60;17.83;;;5.80;99.90;;;;;;4919125;29;20198;-83
2024/03/13 00:22:26;;;;;;;32.73;19.60;;;5.90;99.90;;;;;;4919265;29;20201;-83
2024/03/13 00:24:53;;;;;;;32.40;19.10;;;5.80;99.90;;;;;;4919061;29;20209;-83
2024/03/13 00:27:20;;;;;;;32.73;19.77;;;5.60;99.90;;;;;;4917477;29;20246;-83
2024/03/13 00:29:47;;;;;;;32.40;19.93;;;5.60;99.90;;;;;;4918892;29;20197;-84
2024/03/13 00:32:15;;;;;;;34.83;20.27;;;5.60;99.90;;;;;;4917734;29;20179;-83
2024/03/13 00:34:45;;;;;;;32.00;19.37;;;5.70;99.90;;;;;;4918944;29;20235;-83
2024/03/13 00:37:15;;;;;;;30.23;18.10;;;5.80;99.90;;;;;;4918725;29;20175;-83
2024/03/13 00:39:41;;;;;;;32.77;20.67;;;5.80;99.90;;;;;;4933337;29;20252;-82
2024/03/13 00:42:11;;;;;;;30.90;19.07;;;5.80;99.90;;;;;;4918748;29;20182;-83
2024/03/13 00:44:37;;;;;;;30.13;17.67;;;5.70;99.90;;;;;;4918507;29;20186;-83
2024/03/13 00:47:03;;;;;;;30.77;18.03;;;5.60;99.90;;;;;;4932378;29;20289;-83
2024/03/13 00:49:29;;;;;;;28.93;17.83;;;5.50;99.90;;;;;;4918694;29;20182;-83
2024/03/13 00:51:55;;;;;;;27.60;18.27;;;5.30;99.90;;;;;;4918503;29;20182;-83
2024/03/13 00:54:21;;;;;;;31.20;18.30;;;5.40;99.90;;;;;;4933104;29;20258;-83
2024/03/13 00:56:51;;;;;;;32.50;18.97;;;5.60;99.90;;;;;;4916982;29;20206;-83
2024/03/13 00:59:18;;;;;;;33.50;18.87;;;5.50;99.90;;;;;;4918007;29;20198;-83
2024/03/13 01:01:44;;;;;;;34.27;19.60;;;5.30;99.90;;;;;;4917027;29;20197;-82
2024/03/13 01:04:11;;;;;;;31.77;18.00;;;5.20;99.90;;;;;;4932966;29;20182;-83
2024/03/13 01:06:38;;;;;;;32.73;18.87;;;5.20;99.90;;;;;;4932769;29;20226;-82
2024/03/13 01:09:04;;;;;;;30.57;18.13;;;5.30;99.90;;;;;;4918148;29;20171;-82
2024/03/13 01:11:30;;;;;;;29.20;18.13;;;5.40;99.90;;;;;;4917105;29;20664;-82
2024/03/13 01:13:56;;;;;;;31.70;18.80;;;5.40;99.90;;;;;;4916603;29;20194;-82
2024/03/13 01:16:23;;;;;;;31.50;18.57;;;5.30;99.90;;;;;;4918102;29;20182;-83
2024/03/13 01:18:49;;;;;;;36.00;19.40;;;5.20;99.90;;;;;;4918255;29;20231;-82
2024/03/13 01:21:15;;;;;;;31.23;18.77;;;5.10;99.90;;;;;;4918148;29;20171;-82
2024/03/13 01:23:41;;;;;;;30.97;18.20;;;5.10;99.90;;;;;;4917991;29;20183;-82
2024/03/13 01:26:10;;;;;;;34.13;19.17;;;5.20;99.90;;;;;;4917884;29;20604;-82
2024/03/13 01:28:36;;;;;;;32.47;19.37;;;5.30;99.90;;;;;;4932689;29;20185;-83
2024/03/13 01:31:06;;;;;;;29.90;17.40;;;5.40;99.90;;;;;;4916541;29;20193;-82
2024/03/13 01:33:32;;;;;;;29.87;17.87;;;5.50;99.90;;;;;;4917980;29;20186;-82
2024/03/13 01:35:57;;;;;;;30.13;18.10;;;5.50;99.90;;;;;;4916363;29;20182;-82
2024/03/13 01:38:23;;;;;;;25.80;16.23;;;5.40;99.90;;;;;;4917873;29;20607;-82
2024/03/13 01:55:13;;;;;;;32.33;19.23;;;5.00;99.90;;;;;;4917732;29;20251;-83
2024/03/13 01:57:56;;;;;;;34.17;19.50;;;5.00;99.90;;;;;;4917458;29;20166;-83
2024/03/13 02:03:14;;;;;;;31.20;18.13;;;4.80;99.90;;;;;;4917886;29;20225;-84
2024/03/13 02:05:42;;;;;;;31.00;18.57;;;4.80;99.90;;;;;;4916279;29;20178;-84
2024/03/13 02:08:10;;;;;;;30.83;19.10;;;4.90;99.90;;;;;;4917766;29;20232;-84
2024/03/13 02:10:36;;;;;;;33.40;19.00;;;4.90;99.90;;;;;;4916571;29;20181;-85
2024/03/13 02:13:03;;;;;;;35.07;20.03;;;4.80;99.90;;;;;;4916971;29;20183;-84
2024/03/13 02:15:29;;;;;;;39.33;21.27;;;4.70;99.90;;;;;;4915853;29;20241;-84
2024/03/13 02:17:55;;;;;;;34.87;19.03;;;4.70;99.90;;;;;;4917509;29;20507;-84
2024/03/13 02:20:24;;;;;;;37.33;20.83;;;4.60;99.90;;;;;;4932155;29;20186;-84
2024/03/13 02:23:04;;;;;;;38.07;21.00;;;4.60;99.90;;;;;;4917548;29;20179;-84
2024/03/13 02:25:34;;;;;;;39.53;20.53;;;4.50;99.90;;;;;;4917496;29;20167;-84
2024/03/13 02:28:00;;;;;;;35.60;19.70;;;4.50;99.90;;;;;;4917320;29;20183;-84
2024/03/13 02:30:27;;;;;;;34.40;20.30;;;4.50;99.90;;;;;;4916974;29;20172;-84
2024/03/13 02:32:54;;;;;;;40.30;21.27;;;4.50;99.90;;;;;;4917371;29;20193;-84
2024/03/13 02:35:20;;;;;;;35.20;19.90;;;4.50;99.90;;;;;;4917357;29;20185;-84
2024/03/13 02:37:45;;;;;;;37.43;20.07;;;4.50;99.90;;;;;;4916149;29;20603;-85
2024/03/13 02:40:17;;;;;;;35.37;19.77;;;4.50;99.90;;;;;;4916868;29;20553;-84
2024/03/13 02:42:47;;;;;;;33.10;18.77;;;4.50;99.90;;;;;;4917312;29;20269;-84
2024/03/13 02:45:13;;;;;;;34.27;19.57;;;4.50;99.90;;;;;;4931658;29;20198;-85
2024/03/13 02:47:42;;;;;;;33.70;19.70;;;4.40;99.90;;;;;;4917166;29;20210;-84
2024/03/13 02:50:14;;;;;;;35.37;19.43;;;4.50;99.90;;;;;;4917418;29;20231;-85
2024/03/13 02:52:40;;;;;;;31.63;18.87;;;4.50;99.90;;;;;;4916290;29;20182;-84
2024/03/13 02:55:07;;;;;;;36.83;19.63;;;4.50;99.90;;;;;;4917110;29;20212;-84
2024/03/13 02:57:33;;;;;;;38.40;19.80;;;4.50;99.90;;;;;;4915843;29;20255;-84
2024/03/13 02:59:59;;;;;;;31.40;19.27;;;4.50;99.90;;;;;;4915429;29;20214;-82
2024/03/13 03:02:25;;;;;;;37.37;20.97;;;4.50;99.90;;;;;;4915552;29;20186;-83
2024/03/13 03:04:51;;;;;;;36.63;18.77;;;4.50;99.90;;;;;;4917167;29;20178;-83
2024/03/13 03:07:17;;;;;;;35.27;18.90;;;4.40;99.90;;;;;;4916848;29;20210;-83
2024/03/13 03:09:44;;;;;;;35.00;19.50;;;4.40;99.90;;;;;;4917000;29;20187;-82
2024/03/13 03:12:10;;;;;;;33.43;19.93;;;4.40;99.90;;;;;;4919125;29;20189;-82
2024/03/13 03:14:36;;;;;;;35.20;19.37;;;4.40;99.90;;;;;;4918743;29;20230;-83
2024/03/13 03:17:02;;;;;;;33.97;19.93;;;4.40;99.90;;;;;;4934779;29;20273;-83
2024/03/13 03:19:28;;;;;;;32.33;19.03;;;4.50;99.90;;;;;;4920291;29;20179;-82
2024/03/13 03:21:54;;;;;;;36.73;19.97;;;4.40;99.90;;;;;;4920205;29;20182;-83
2024/03/13 03:24:20;;;;;;;33.30;19.17;;;4.50;99.90;;;;;;4920180;29;20253;-83
2024/03/13 03:26:46;;;;;;;35.30;19.23;;;4.40;99.90;;;;;;4918740;29;20214;-83
2024/03/13 03:29:12;;;;;;;36.27;19.10;;;4.40;99.90;;;;;;4934798;29;20282;-83
2024/03/13 03:31:38;;;;;;;33.80;18.57;;;4.40;99.90;;;;;;4919558;29;20183;-83
2024/03/13 03:34:03;;;;;;;30.63;17.97;;;4.40;99.90;;;;;;4934640;29;20187;-82
2024/03/13 03:36:30;;;;;;;33.23;18.67;;;4.50;99.90;;;;;;4919823;29;20206;-83
2024/03/13 03:38:56;;;;;;;31.60;18.07;;;4.50;99.90;;;;;;4919747;29;20183;-83
2024/03/13 03:41:21;;;;;;;31.13;18.87;;;4.50;99.90;;;;;;4919756;29;20186;-83
2024/03/13 03:43:47;;;;;;;28.27;17.27;;;4.50;99.90;;;;;;4918668;29;20189;-83
2024/03/13 03:46:14;;;;;;;31.73;17.27;;;4.40;99.90;;;;;;4919463;29;20206;-83
2024/03/13 03:48:40;;;;;;;33.03;17.40;;;4.30;99.90;;;;;;4919746;29;20641;-82
2024/03/13 03:51:06;;;;;;;29.63;17.47;;;4.30;99.90;;;;;;4919760;29;20610;-83
2024/03/13 03:53:32;;;;;;;33.40;18.90;;;4.20;99.90;;;;;;4919706;29;20202;-82
2024/03/13 03:55:58;;;;;;;34.70;20.00;;;4.10;99.90;;;;;;4918355;29;20269;-82
2024/03/13 03:58:24;;;;;;;33.57;19.27;;;4.00;99.90;;;;;;4919697;29;20174;-83
2024/03/13 04:00:52;;;;;;;39.20;19.23;;;4.00;99.90;;;;;;4934012;29;20174;-83
2024/03/13 04:03:18;;;;;;;32.57;18.67;;;4.00;99.90;;;;;;4919480;29;20560;-84
2024/03/13 04:05:45;;;;;;;31.73;19.00;;;3.90;99.90;;;;;;4919483;29;20185;-83
2024/03/13 04:08:14;;;;;;;32.83;18.77;;;3.90;99.90;;;;;;4918064;29;20293;-83
2024/03/13 04:10:40;;;;;;;32.43;17.30;;;3.90;99.90;;;;;;4933968;29;20505;-83
2024/03/13 04:13:06;;;;;;;37.13;20.40;;;3.90;99.90;;;;;;4919298;29;20678;-84
2024/03/13 04:15:31;;;;;;;31.50;17.53;;;3.90;99.90;;;;;;4918839;29;20223;-84
2024/03/13 04:17:57;;;;;;;34.23;19.47;;;4.00;99.90;;;;;;4919179;29;20196;-83
2024/03/13 04:20:23;;;;;;;31.60;17.97;;;4.00;99.90;;;;;;4919058;29;20171;-84
2024/03/13 04:22:48;;;;;;;32.23;19.03;;;4.10;99.90;;;;;;4919146;29;20201;-83
2024/03/13 04:25:14;;;;;;;33.40;17.83;;;4.10;99.90;;;;;;4933571;29;20185;-84
2024/03/13 04:27:40;;;;;;;32.20;18.20;;;4.10;99.90;;;;;;4918978;29;20222;-84
2024/03/13 04:30:06;;;;;;;32.13;18.30;;;4.00;99.90;;;;;;4918801;29;20170;-84
2024/03/13 04:32:32;;;;;;;32.50;18.00;;;4.00;99.90;;;;;;4918854;29;20178;-84
2024/03/13 04:34:58;;;;;;;33.17;17.90;;;4.10;99.90;;;;;;4917664;29;20242;-83
2024/03/13 04:37:24;;;;;;;32.30;17.53;;;4.10;99.90;;;;;;4918644;29;20229;-83
2024/03/13 04:39:49;;;;;;;36.97;18.97;;;4.00;99.90;;;;;;4918851;29;20191;-83
2024/03/13 04:42:16;;;;;;;30.50;17.50;;;3.90;99.90;;;;;;4918778;29;20185;-83
2024/03/13 04:44:44;;;;;;;39.20;19.03;;;4.00;99.90;;;;;;4917233;29;20503;-84
2024/03/13 04:47:10;;;;;;;32.57;17.80;;;4.00;99.90;;;;;;4918578;29;20302;-83
2024/03/13 04:49:37;;;;;;;34.90;18.97;;;3.90;99.90;;;;;;4918669;29;20598;-83
2024/03/13 04:52:03;;;;;;;29.67;17.50;;;3.90;99.90;;;;;;4918687;29;20187;-83
2024/03/13 04:54:29;;;;;;;29.60;17.70;;;3.90;99.90;;;;;;4918625;29;20189;-84
2024/03/13 04:56:55;;;;;;;33.10;17.30;;;4.00;99.90;;;;;;4918308;29;20179;-83
2024/03/13 04:59:20;;;;;;;32.30;18.17;;;3.90;99.90;;;;;;4918546;29;20587;-83
2024/03/13 05:01:46;;;;;;;31.17;17.00;;;3.90;99.90;;;;;;4918396;29;20234;-83
2024/03/13 05:04:12;;;;;;;30.17;17.00;;;3.70;99.90;;;;;;4932967;29;20175;-84
2024/03/13 05:06:37;;;;;;;28.37;16.17;;;3.70;99.90;;;;;;4916979;29;20218;-83
2024/03/13 05:09:03;;;;;;;31.50;17.80;;;3.80;99.90;;;;;;4918320;29;20250;-83
2024/03/13 05:11:29;;;;;;;31.00;17.10;;;3.90;99.90;;;;;;4918453;29;20171;-82
2024/03/13 05:13:55;;;;;;;31.50;16.90;;;3.90;99.90;;;;;;4918147;29;20689;-83
2024/03/13 05:16:20;;;;;;;31.60;17.17;;;3.80;99.90;;;;;;4917927;29;20171;-83
2024/03/13 05:18:48;;;;;;;28.33;15.97;;;3.80;99.90;;;;;;4918125;29;20182;-84
2024/03/13 05:21:14;;;;;;;29.70;16.37;;;3.80;99.90;;;;;;4918094;29;20166;-83
2024/03/13 05:23:40;;;;;;;29.80;16.73;;;3.80;99.90;;;;;;4916903;29;20189;-84
2024/03/13 05:26:06;;;;;;;27.07;15.00;;;3.80;99.90;;;;;;4916669;29;20218;-84
2024/03/13 05:28:32;;;;;;;29.47;16.00;;;3.60;99.90;;;;;;4918082;29;20499;-83
2024/03/13 05:30:58;;;;;;;26.50;15.80;;;3.50;99.90;;;;;;4917799;29;20179;-83
2024/03/13 05:33:24;;;;;;;30.83;17.53;;;3.50;99.90;;;;;;4916048;29;20575;-83
2024/03/13 05:35:50;;;;;;;29.90;16.80;;;3.50;99.90;;;;;;4917603;29;20254;-83
2024/03/13 05:38:16;;;;;;;26.23;15.37;;;3.40;99.90;;;;;;4917848;29;20186;-83
2024/03/13 05:40:42;;;;;;;30.27;17.47;;;3.40;99.90;;;;;;4917811;29;20625;-83
2024/03/13 05:43:08;;;;;;;32.50;17.27;;;3.40;99.90;;;;;;4917867;29;20194;-83
2024/03/13 05:45:33;;;;;;;28.60;17.00;;;3.40;99.90;;;;;;4917514;29;20179;-82
2024/03/13 05:47:59;;;;;;;27.50;15.43;;;3.50;99.90;;;;;;4917506;29;20215;-82
2024/03/13 05:50:25;;;;;;;30.70;16.33;;;3.50;99.90;;;;;;4917854;29;20508;-82
2024/03/13 05:52:50;;;;;;;28.20;17.00;;;3.60;99.90;;;;;;4917764;29;20189;-82
2024/03/13 05:55:16;;;;;;;31.57;17.93;;;3.60;99.90;;;;;;4932238;29;20217;-82
2024/03/13 05:57:43;;;;;;;31.53;17.30;;;3.60;99.90;;;;;;4917366;29;20617;-82
2024/03/13 06:00:13;;;;;;;32.00;16.77;;;3.50;99.90;;;;;;4917168;29;20197;-82
2024/03/13 06:02:41;;;;;;;29.83;17.37;;;3.50;99.90;;;;;;4917484;29;20174;-83
2024/03/13 06:05:11;;;;;;;31.77;17.07;;;3.40;99.90;;;;;;4915687;29;20202;-82
2024/03/13 06:07:38;;;;;;;32.87;18.23;;;3.40;99.90;;;;;;4917316;29;20207;-83
2024/03/13 06:10:10;;;;;;;37.47;17.53;;;3.50;99.90;;;;;;4916374;29;20634;-82
2024/03/13 06:12:39;;;;;;;32.10;18.27;;;3.60;99.90;;;;;;4917674;29;20536;-83
2024/03/13 06:15:14;;;;;;;29.40;17.73;;;3.50;99.90;;;;;;4916944;29;20684;-81
2024/03/13 06:17:40;;;;;;;29.20;16.97;;;3.60;99.90;;;;;;4917377;29;20169;-82
2024/03/13 06:20:12;;;;;;;29.43;16.07;;;3.60;99.90;;;;;;4911948;29;20191;-82
2024/03/13 06:22:40;;;;;;;30.47;17.37;;;3.70;99.90;;;;;;4900568;29;20527;-82
2024/03/13 06:25:06;;;;;;;32.27;17.73;;;3.70;99.90;;;;;;4897916;29;20183;-82
2024/03/13 06:27:33;;;;;;;35.73;17.33;;;3.70;99.90;;;;;;4898103;29;20238;-83
2024/03/13 06:30:00;;;;;;;34.00;18.53;;;3.80;99.90;;;;;;4912407;29;20657;-84
2024/03/13 06:32:28;;;;;;;29.57;17.57;;;3.90;99.90;;;;;;4912838;29;20186;-83
2024/03/13 06:34:55;;;;;;;30.53;17.77;;;3.90;99.90;;;;;;4898548;29;20570;-84
2024/03/13 06:37:22;;;;;;;33.97;18.10;;;4.00;99.90;;;;;;4898354;29;20179;-84
2024/03/13 06:39:48;;;;;;;34.80;18.03;;;4.10;99.90;;;;;;4930854;29;20245;-83
2024/03/13 06:42:14;;;;;;;36.17;18.83;;;4.10;99.90;;;;;;4915988;29;20577;-83
2024/03/13 06:44:39;;;;;;;34.00;16.93;;;4.20;99.90;;;;;;4932458;29;20186;-83
2024/03/13 06:47:05;;;;;;;32.77;17.53;;;4.20;99.90;;;;;;4904049;29;20207;-83
2024/03/13 06:49:31;;;;;;;33.07;17.93;;;4.30;99.90;;;;;;4929588;29;20695;-83
2024/03/13 06:51:57;;;;;;;34.70;19.33;;;4.30;99.90;;;;;;4901813;29;20172;-82
2024/03/13 06:54:23;;;;;;;36.47;19.07;;;4.40;99.90;;;;;;4915706;29;20513;-82
2024/03/13 06:56:49;;;;;;;37.20;19.13;;;4.40;99.90;;;;;;4922385;29;20318;-83
2024/03/13 06:59:17;;;;;;;34.03;18.73;;;4.50;99.90;;;;;;4907408;29;20187;-83
2024/03/13 07:01:46;;;;;;;32.30;17.90;;;4.60;99.90;;;;;;4923812;29;20209;-83
2024/03/13 07:04:12;;;;;;;36.80;19.67;;;4.70;99.90;;;;;;4913879;29;20214;-83
2024/03/13 07:06:38;;;;;;;36.13;18.40;;;4.80;99.90;;;;;;4911562;29;20256;-83
2024/03/13 07:09:04;;;;;;;33.20;17.87;;;4.80;99.90;;;;;;4912543;29;20250;-82
2024/03/13 07:11:30;;;;;;;31.80;18.37;;;4.90;99.90;;;;;;4903063;29;20655;-82
2024/03/13 07:13:56;;;;;;;34.47;19.13;;;5.00;99.90;;;;;;4906409;29;20330;-83
2024/03/13 07:16:21;;;;;;;31.60;17.83;;;5.10;99.90;;;;;;4927743;29;20285;-82
2024/03/13 07:18:47;;;;;;;35.10;19.97;;;5.20;99.90;;;;;;4914108;29;20194;-83
2024/03/13 07:21:13;;;;;;;37.03;20.23;;;5.40;99.90;;;;;;4906075;29;20195;-83
2024/03/13 07:23:39;;;;;;;36.07;20.20;;;5.60;99.90;;;;;;4904319;29;20627;-83
2024/03/13 07:26:08;;;;;;;36.33;19.90;;;5.70;99.90;;;;;;4921613;29;20253;-82
2024/03/13 07:28:37;;;;;;;34.80;19.50;;;5.90;99.90;;;;;;4909847;29;20183;-82
2024/03/13 07:31:05;;;;;;;33.87;18.70;;;6.00;99.90;;;;;;4905329;29;20188;-82
2024/03/13 07:33:30;;;;;;;33.03;17.67;;;6.00;99.90;;;;;;4900904;29;20772;-84
2024/03/13 07:35:56;;;;;;;33.97;19.13;;;6.10;99.90;;;;;;4909926;29;20246;-83
2024/03/13 07:38:22;;;;;;;33.20;19.13;;;6.20;99.90;;;;;;4910349;29;20187;-83
2024/03/13 07:40:47;;;;;;;33.23;18.83;;;6.30;99.90;;;;;;4913724;29;20239;-83
2024/03/13 07:43:13;;;;;;;33.07;18.53;;;6.40;99.90;;;;;;4924788;29;20202;-82
2024/03/13 07:45:42;;;;;;;32.63;18.80;;;6.60;99.90;;;;;;4909519;29;20199;-82
2024/03/13 07:48:08;;;;;;;31.43;18.10;;;6.60;99.90;;;;;;4912881;29;20366;-83
2024/03/13 07:50:39;;;;;;;30.87;17.47;;;6.70;99.90;;;;;;4911780;29;20257;-83
2024/03/13 07:53:08;;;;;;;28.97;17.40;;;6.70;99.90;;;;;;4920987;29;20194;-81
2024/03/13 07:55:34;;;;;;;32.17;18.07;;;6.80;99.90;;;;;;4914472;29;20198;-81
2024/03/13 07:58:00;;;;;;;32.33;18.27;;;6.90;99.90;;;;;;4926654;29;20321;-81
2024/03/13 08:00:29;;;;;;;30.43;17.67;;;7.00;99.90;;;;;;4910595;29;20286;-81
2024/03/13 08:02:55;;;;;;;30.30;18.13;;;7.10;99.90;;;;;;4927422;29;20504;-82
2024/03/13 08:05:22;;;;;;;32.57;17.77;;;7.10;99.90;;;;;;4925930;29;20195;-82
2024/03/13 08:07:48;;;;;;;32.67;17.13;;;7.20;99.90;;;;;;4911483;29;20222;-82
2024/03/13 08:10:18;;;;;;;27.93;16.70;;;7.30;99.90;;;;;;4929447;29;20195;-83
2024/03/13 08:12:45;;;;;;;29.33;17.07;;;7.30;99.90;;;;;;4928330;29;20630;-81
2024/03/13 08:15:11;;;;;;;28.37;16.33;;;7.40;99.90;;;;;;4911650;29;20234;-83
2024/03/13 08:17:37;;;;;;;28.53;15.90;;;7.60;99.90;;;;;;4912941;29;20186;-83
2024/03/13 08:20:04;;;;;;;26.40;15.63;;;7.60;99.90;;;;;;4923239;29;20665;-82
2024/03/13 08:22:30;;;;;;;24.90;15.40;;;7.70;99.90;;;;;;4918888;29;20191;-82
2024/03/13 08:24:56;;;;;;;24.63;15.13;;;7.70;99.90;;;;;;4929678;29;20214;-83
2024/03/13 08:27:21;;;;;;;26.53;15.93;;;7.70;99.90;;;;;;4925977;29;20245;-83
2024/03/13 08:29:47;;;;;;;22.00;14.00;;;7.90;99.90;;;;;;4909995;29;20251;-83
2024/03/13 08:32:13;;;;;;;24.70;14.37;;;7.80;99.90;;;;;;4914861;29;20191;-82
2024/03/13 08:34:39;;;;;;;24.57;15.00;;;7.80;99.90;;;;;;4909358;29;20213;-80
2024/03/13 08:37:05;;;;;;;24.33;14.90;;;7.80;99.90;;;;;;4905482;29;20534;-84
2024/03/13 08:39:31;;;;;;;26.97;14.53;;;7.90;99.90;;;;;;4900653;29;20195;-83
2024/03/13 08:41:58;;;;;;;23.20;13.53;;;8.10;99.90;;;;;;4898231;29;20195;-82
2024/03/13 08:44:23;;;;;;;24.83;14.13;;;8.20;99.90;;;;;;4905772;29;20610;-82
2024/03/13 08:46:49;;;;;;;20.77;12.50;;;8.30;99.90;;;;;;4897754;29;20222;-83
2024/03/13 08:49:17;;;;;;;22.43;13.23;;;8.40;99.90;;;;;;4905980;29;20194;-82
2024/03/13 08:51:43;;;;;;;19.07;11.73;;;8.50;99.90;;;;;;4926668;28;20277;-82
2024/03/13 08:54:11;;;;;;;18.47;11.60;;;8.50;99.90;;;;;;4916265;29;20201;-82
2024/03/13 08:56:39;;;;;;;20.17;12.17;;;8.60;99.90;;;;;;4908188;29;20242;-81
2024/03/13 08:59:05;;;;;;;19.40;11.40;;;8.60;99.90;;;;;;4920334;29;20285;-81
2024/03/13 09:01:44;;;;;;;19.43;10.90;;;8.60;99.90;;;;;;4911461;29;20359;-83
2024/03/13 09:04:10;;;;;;;18.80;11.10;;;8.50;99.90;;;;;;4913252;29;20199;-82
2024/03/13 09:06:36;;;;;;;17.53;11.13;;;8.60;99.90;;;;;;4901962;29;20681;-82
2024/03/13 09:09:05;;;;;;;20.17;10.82;;;8.70;99.90;;;;;;4921311;29;20199;-82
2024/03/13 09:11:31;;;;;;;14.73;9.27;;;8.80;99.90;;;;;;4919214;29;20194;-83
2024/03/13 09:14:03;;;;;;;20.27;10.00;;;9.00;99.90;;;;;;4922738;29;20642;-80
2024/03/13 09:16:32;;;;;;;12.65;8.10;;;9.10;99.90;;;;;;4920826;29;20258;-83
2024/03/13 09:18:58;;;;;;;15.73;8.50;;;9.20;99.90;;;;;;4905509;29;20262;-82
2024/03/13 09:21:25;;;;;;;15.40;8.95;;;9.20;99.90;;;;;;4925225;29;20248;-83
2024/03/13 09:23:52;;;;;;;12.95;8.07;;;9.30;99.90;;;;;;4910836;29;20189;-82
2024/03/13 09:26:18;;;;;;;13.77;8.97;;;9.40;99.90;;;;;;4927868;29;20226;-82
2024/03/13 09:28:47;;;;;;;13.30;8.95;;;9.40;99.90;;;;;;4920205;29;20198;-83
2024/03/13 09:31:13;;;;;;;14.30;8.93;;;9.30;99.90;;;;;;4925544;28;20630;-82
2024/03/13 09:33:39;;;;;;;12.50;8.70;;;9.30;99.90;;;;;;4914276;29;20202;-82
2024/03/13 09:36:12;;;;;;;15.85;8.75;;;9.30;99.90;;;;;;4907446;29;20237;-83
2024/03/13 09:38:40;;;;;;;12.90;8.30;;;9.40;99.90;;;;;;4923210;29;20217;-83
2024/03/13 09:41:06;;;;;;;13.00;7.53;;;9.60;99.90;;;;;;4911926;29;20179;-82
2024/03/13 09:43:32;;;;;;;11.57;6.88;;;9.80;99.90;;;;;;4924433;29;20250;-82
2024/03/13 09:45:58;;;;;;;9.52;5.78;;;9.90;99.90;;;;;;4912694;29;20186;-82
2024/03/13 09:48:25;;;;;;;10.93;6.60;;;10.10;99.90;;;;;;4926586;29;20194;-82
2024/03/13 09:50:53;;;;;;;9.10;5.40;;;10.10;99.90;;;;;;4913717;29;20613;-83
2024/03/13 09:53:21;;;;;;;11.23;6.05;;;10.20;99.90;;;;;;4927341;29;20202;-82
2024/03/13 09:55:48;;;;;;;9.82;6.22;;;10.10;99.90;;;;;;4910823;29;20179;-82
2024/03/13 09:58:15;;;;;;;8.60;6.07;;;10.40;99.90;;;;;;4911435;29;20197;-82
2024/03/13 10:00:42;;;;;;;7.43;5.25;;;10.60;99.90;;;;;;4918099;29;20193;-82
2024/03/13 10:03:21;;;;;;;9.38;5.90;;;10.50;99.90;;;;;;4912203;29;20176;-81
2024/03/13 10:05:49;;;;;;;7.28;4.80;;;10.60;99.90;;;;;;4898459;29;20155;-82
2024/03/13 10:08:18;;;;;;;7.65;4.70;;;10.60;99.90;;;;;;4918894;29;20678;-82
2024/03/13 10:10:45;;;;;;;6.22;4.55;;;10.80;99.90;;;;;;4912380;29;20246;-82
2024/03/13 10:13:13;;;;;;;5.53;4.07;;;10.70;99.90;;;;;;4898690;29;20205;-82
2024/03/13 10:15:40;;;;;;;5.85;4.40;;;10.80;99.90;;;;;;4897792;29;20234;-81
2024/03/13 10:18:17;;;;;;;6.25;4.18;;;10.90;99.90;;;;;;4912619;29;20183;-83
2024/03/13 10:20:54;;;;;;;5.20;4.07;;;11.00;99.90;;;;;;4916853;29;20274;-82
2024/03/13 10:23:22;;;;;;;5.30;3.92;;;11.00;99.90;;;;;;4902169;29;20163;-83
2024/03/13 10:25:51;;;;;;;7.32;3.60;;;11.10;99.90;;;;;;4901692;29;20203;-82
2024/03/13 10:28:23;;;;;;;7.00;4.00;;;11.10;99.90;;;;;;4902143;29;20239;-83
2024/03/13 10:30:52;;;;;;;6.25;4.00;;;11.20;99.90;;;;;;4901898;29;20176;-82
2024/03/13 10:33:18;;;;;;;5.65;4.25;;;11.20;99.90;;;;;;4916518;29;20187;-80
2024/03/13 10:35:45;;;;;;;5.85;3.97;;;11.30;99.90;;;;;;4916489;29;20274;-82
2024/03/13 10:38:12;;;;;;;5.13;3.97;;;11.40;99.90;;;;;;4907116;29;20209;-82
2024/03/13 10:40:41;;;;;;;6.07;3.88;;;11.50;99.90;;;;;;4920857;29;20175;-84
2024/03/13 10:43:10;;;;;;;6.70;3.80;;;11.60;99.90;;;;;;4920852;29;20159;-82
2024/03/13 10:45:37;;;;;;;5.88;3.85;;;11.70;99.90;;;;;;4920375;29;20182;-83
2024/03/13 10:48:06;;;;;;;8.68;3.38;;;11.60;99.90;;;;;;4919022;29;20258;-82
2024/03/13 10:50:32;;;;;;;6.18;3.17;;;11.60;99.90;;;;;;4919342;29;20194;-82
2024/03/13 10:52:57;;;;;;;4.75;3.47;;;11.60;99.90;;;;;;4920698;29;20171;-83
2024/03/13 10:55:29;;;;;;;4.28;3.28;;;11.80;99.90;;;;;;4920438;29;20629;-82
2024/03/13 10:57:54;;;;;;;4.07;3.28;;;11.80;99.90;;;;;;4920312;29;20577;-82
2024/03/13 11:00:23;;;;;;;4.97;3.63;;;11.80;99.90;;;;;;4920270;29;20261;-82
2024/03/13 11:02:51;;;;;;;5.53;3.83;;;11.60;99.90;;;;;;4918860;29;20199;-82
2024/03/13 11:05:17;;;;;;;5.13;3.65;;;11.50;99.90;;;;;;4935029;29;20182;-82
2024/03/13 11:07:45;;;;;;;4.50;3.40;;;11.40;99.90;;;;;;4934860;29;20221;-83
2024/03/13 11:10:24;;;;;;;5.13;3.83;;;11.50;99.90;;;;;;4919167;29;20510;-83
2024/03/13 11:12:52;;;;;;;4.72;3.58;;;11.70;99.90;;;;;;4920237;29;20163;-82
2024/03/13 11:15:24;;;;;;;5.25;3.95;;;11.80;99.90;;;;;;4918695;29;20238;-83
2024/03/13 11:18:02;;;;;;;5.15;3.83;;;11.80;99.90;;;;;;4918592;29;20189;-82
2024/03/13 11:20:43;;;;;;;6.32;3.72;;;11.80;99.90;;;;;;4920198;29;20194;-80
2024/03/13 11:23:23;;;;;;;6.70;4.47;;;11.70;99.90;;;;;;4920286;29;20171;-82
2024/03/13 11:25:50;;;;;;;6.22;4.20;;;11.70;99.90;;;;;;4919828;29;20166;-82
2024/03/13 11:28:29;;;;;;;6.05;4.03;;;11.70;99.90;;;;;;4920375;29;20674;-83
2024/03/13 11:30:57;;;;;;;4.93;3.85;;;11.70;99.90;;;;;;4918792;29;20185;-83
2024/03/13 11:33:24;;;;;;;5.95;4.82;;;11.60;99.90;;;;;;4917957;29;20244;-83
2024/03/13 11:35:54;;;;;;;6.95;4.55;;;11.50;99.90;;;;;;4919633;29;20190;-81
2024/03/13 11:38:21;;;;;;;6.22;4.50;;;11.60;99.90;;;;;;4919646;29;20626;-81
2024/03/13 11:40:48;;;;;;;5.85;4.85;;;11.60;99.90;;;;;;4918670;29;20233;-81
2024/03/13 11:43:23;;;;;;;5.72;4.55;;;11.60;99.90;;;;;;4918177;29;20271;-81
2024/03/13 11:45:49;;;;;;;6.25;4.93;;;11.60;99.90;;;;;;4919625;29;20167;-81
2024/03/13 11:48:22;;;;;;;7.13;5.15;;;11.60;99.90;;;;;;4919521;29;20217;-80
2024/03/13 11:51:08;;;;;;;7.88;5.32;;;11.70;99.90;;;;;;4933263;29;20202;-83
2024/03/13 11:53:45;;;;;;;7.07;4.85;;;11.80;99.90;;;;;;4918371;29;20193;-82
2024/03/13 11:56:20;;;;;;;6.22;4.82;;;11.70;99.90;;;;;;4919385;29;20206;-83
2024/03/13 11:58:47;;;;;;;8.15;4.95;;;11.70;99.90;;;;;;4918290;29;20201;-81
2024/03/13 12:01:13;;;;;;;9.70;5.40;;;11.70;99.90;;;;;;4918031;29;20183;-83
2024/03/13 12:03:42;;;;;;;7.55;5.35;;;11.70;99.90;;;;;;4934019;29;20182;-82
2024/03/13 12:06:21;;;;;;;7.32;5.00;;;11.70;99.90;;;;;;4933769;29;20183;-83
2024/03/13 12:08:51;;;;;;;6.88;5.10;;;11.70;99.90;;;;;;4933902;29;20225;-82
2024/03/13 12:11:21;;;;;;;8.20;5.45;;;11.60;99.90;;;;;;4919549;29;20575;-82
2024/03/13 12:13:47;;;;;;;9.05;5.15;;;11.70;99.90;;;;;;4918879;29;20163;-82
2024/03/13 12:16:14;;;;;;;7.78;5.47;;;11.70;99.90;;;;;;4918841;29;20254;-82
2024/03/13 12:18:52;;;;;;;7.00;5.47;;;11.70;99.90;;;;;;4919129;29;20175;-82
2024/03/13 12:21:25;;;;;;;9.25;5.35;;;11.70;99.90;;;;;;4917908;29;20530;-83
2024/03/13 12:23:52;;;;;;;7.30;4.90;;;11.70;99.90;;;;;;4918810;29;20166;-83
2024/03/13 12:26:19;;;;;;;8.73;5.45;;;11.60;99.90;;;;;;4933057;29;20229;-83
2024/03/13 12:28:45;;;;;;;7.00;5.35;;;11.60;99.90;;;;;;4917210;29;20277;-82
2024/03/13 12:31:11;;;;;;;6.88;5.22;;;11.60;99.90;;;;;;4918643;29;20249;-82
2024/03/13 12:33:36;;;;;;;8.45;4.72;;;11.60;99.90;;;;;;4917648;29;20556;-84
2024/03/13 12:36:06;;;;;;;7.03;5.18;;;11.60;99.90;;;;;;4918637;29;20171;-83
2024/03/13 12:38:40;;;;;;;6.80;5.22;;;11.60;99.90;;;;;;4916837;29;20191;-83
2024/03/13 12:41:07;;;;;;;7.05;4.93;;;11.60;99.90;;;;;;4918783;29;20182;-82
2024/03/13 12:43:34;;;;;;;7.95;5.10;;;11.50;99.90;;;;;;4918291;29;20190;-83
2024/03/13 12:46:02;;;;;;;7.55;5.00;;;11.60;99.90;;;;;;4932709;29;20266;-82
2024/03/13 12:48:31;;;;;;;6.35;5.03;;;11.60;99.90;;;;;;4918613;29;20213;-83
2024/03/13 12:51:07;;;;;;;6.78;5.00;;;11.60;99.90;;;;;;4932968;29;20285;-83
2024/03/13 12:53:33;;;;;;;6.07;4.38;;;11.60;99.90;;;;;;4918321;29;20178;-82
2024/03/13 12:56:00;;;;;;;6.75;4.78;;;11.70;99.90;;;;;;4932637;29;20204;-83
2024/03/13 12:58:29;;;;;;;7.93;4.85;;;11.70;99.90;;;;;;4932720;29;20181;-83